Time;durP1;ratioP1;P1;durP2;ratioP2;P2;SDS_P1;SDS_P2;PMS_P1;PMS_P2;Temp;Humidity;BMP_temperature;BMP_pressure;BME280_temperature;BME280_humidity;BME280_pressure;Samples;Min_cycle;Max_cycle;Signal;HPM_P1;HPM_P2
2023/01/06 00:00:10;;;;;;;108.20;81.70;;;;;;;7.46;69.54;99689.50;5034599;28;20036;-77
2023/01/06 00:02:35;;;;;;;101.10;74.47;;;;;;;7.33;69.72;99664.44;5033150;28;20461;-76
2023/01/06 00:05:01;;;;;;;106.05;78.22;;;;;;;7.68;69.59;99714.41;5034545;28;20079;-77
2023/01/06 00:07:26;;;;;;;98.00;75.68;;;;;;;7.29;69.63;99646.50;5033194;28;20555;-77
2023/01/06 00:09:51;;;;;;;104.78;73.32;;;;;;;7.35;69.70;99645.88;5033094;28;20120;-78
2023/01/06 00:12:17;;;;;;;82.78;63.45;;;;;;;7.67;69.18;99689.94;5032914;28;20057;-77
2023/01/06 00:14:43;;;;;;;93.90;69.03;;;;;;;7.07;69.01;99579.56;5034228;28;20025;-77
2023/01/06 00:17:09;;;;;;;92.32;67.38;;;;;;;7.06;68.79;99577.94;5034366;28;20478;-77
2023/01/06 00:19:34;;;;;;;46.58;33.88;;;;;;;7.49;68.33;99634.00;5034382;28;20022;-76
2023/01/06 00:21:59;;;;;;;22.45;14.88;;;;;;;8.04;66.53;99688.81;5034252;28;20537;-77
2023/01/06 00:24:25;;;;;;;12.00;10.00;;;;;;;8.44;65.70;99696.88;5033086;28;20537;-77
2023/01/06 00:26:50;;;;;;;15.80;8.30;;;;;;;8.72;64.76;99699.25;5042661;28;20028;-77
2023/01/06 00:29:15;;;;;;;8.85;7.50;;;;;;;8.25;63.40;99592.75;5053706;28;20025;-77
2023/01/06 00:31:41;;;;;;;13.27;7.13;;;;;;;9.08;62.97;99687.47;5036166;28;20056;-77
2023/01/06 00:34:06;;;;;;;11.07;7.40;;;;;;;9.36;61.92;99695.84;5034321;28;20029;-77
2023/01/06 00:36:32;;;;;;;12.93;8.07;;;;;;;9.51;60.77;99688.91;5034143;28;20029;-77
2023/01/06 00:38:57;;;;;;;10.90;6.93;;;;;;;9.66;60.33;99701.38;5033804;28;20116;-77
2023/01/06 00:44:07;;;;;;;11.10;7.43;;;;;;;9.93;58.64;99706.28;5033358;28;20037;-78
2023/01/06 00:46:33;;;;;;;9.75;6.85;;;;;;;9.08;58.06;99560.22;5033721;28;20025;-78
2023/01/06 00:49:01;;;;;;;10.27;7.85;;;;;;;10.14;57.58;99717.09;5032438;28;20028;-78
2023/01/06 00:51:26;;;;;;;10.30;7.50;;;;;;;9.75;56.96;99639.75;5033749;28;20033;-78
2023/01/06 00:53:52;;;;;;;8.50;7.43;;;;;;;9.44;57.46;99598.31;5033615;28;20465;-78
2023/01/06 00:56:18;;;;;;;9.85;7.20;;;;;;;10.28;56.87;99717.41;5033378;28;20494;-77
2023/01/06 00:58:43;;;;;;;8.90;6.55;;;;;;;10.31;56.57;99719.69;5033336;28;20087;-78
2023/01/06 01:01:09;;;;;;;9.52;7.03;;;;;;;10.26;56.38;99706.19;5033349;28;20087;-78
2023/01/06 01:03:36;;;;;;;9.65;7.13;;;;;;;10.37;56.32;99721.63;5033579;28;20037;-78
2023/01/06 01:06:03;;;;;;;9.20;7.50;;;;;;;9.44;56.03;99574.59;5033558;28;20108;-78
2023/01/06 01:08:29;;;;;;;10.63;7.07;;;;;;;10.39;55.30;99728.38;5033295;28;20025;-78
2023/01/06 01:11:01;;;;;;;7.78;6.75;;;;;;;9.45;55.82;99585.97;5033286;28;20053;-78
2023/01/06 01:13:26;;;;;;;14.07;8.40;;;;;;;10.42;54.86;99716.69;5033042;28;20098;-77
2023/01/06 01:15:51;;;;;;;10.20;7.00;;;;;;;10.44;54.59;99715.53;5033295;28;20484;-77
2023/01/06 01:18:17;;;;;;;9.43;7.55;;;;;;;10.47;54.50;99714.34;5033145;28;20558;-78
2023/01/06 01:20:45;;;;;;;9.18;7.18;;;;;;;9.44;54.80;99545.59;5033148;28;20095;-78
2023/01/06 01:23:11;;;;;;;8.32;6.80;;;;;;;10.40;54.32;99698.41;5031764;28;20056;-77
2023/01/06 01:25:36;;;;;;;7.15;6.38;;;;;;;10.46;53.92;99696.88;5032940;28;20030;-77
2023/01/06 01:28:01;;;;;;;9.05;6.65;;;;;;;10.51;53.87;99705.09;5032908;28;20025;-77
2023/01/06 01:30:27;;;;;;;8.05;6.45;;;;;;;9.60;53.86;99552.63;5032804;28;20494;-77
2023/01/06 01:32:52;;;;;;;10.10;6.78;;;;;;;10.51;53.97;99689.25;5032730;28;20037;-77
2023/01/06 01:35:17;;;;;;;12.50;6.93;;;;;;;10.19;53.53;99635.59;5032708;28;20048;-78
2023/01/06 01:37:43;;;;;;;7.93;6.03;;;;;;;10.74;53.68;99720.97;5032566;28;20501;-78
2023/01/06 01:40:09;;;;;;;9.50;6.30;;;;;;;10.75;53.11;99715.50;5032796;28;20040;-78
2023/01/06 01:42:34;;;;;;;8.15;6.50;;;;;;;9.61;52.60;99527.91;5031529;28;20035;-78
2023/01/06 01:45:05;;;;;;;8.98;6.00;;;;;;;10.81;52.01;99722.75;5032729;28;20025;-78
2023/01/06 01:47:47;;;;;;;9.25;6.65;;;;;;;10.77;51.97;99718.81;5031297;28;20025;-78
2023/01/06 01:50:24;;;;;;;7.95;6.28;;;;;;;10.91;51.55;99714.59;5032540;28;20033;-78
2023/01/06 01:52:54;;;;;;;12.25;7.78;;;;;;;10.39;51.43;99635.19;5032830;28;20034;-78
2023/01/06 01:55:21;;;;;;;9.05;5.70;;;;;;;10.93;52.79;99703.84;5032366;28;20048;-77
2023/01/06 01:57:53;;;;;;;10.93;6.10;;;;;;;10.81;51.45;99698.16;5031927;28;20029;-77
2023/01/06 02:00:19;;;;;;;9.68;6.03;;;;;;;10.21;51.55;99573.94;5032419;28;20104;-78
2023/01/06 02:02:44;;;;;;;10.38;6.55;;;;;;;11.13;51.58;99723.50;5032086;28;20537;-77
2023/01/06 02:05:15;;;;;;;8.80;6.32;;;;;;;11.14;50.70;99728.59;5032303;28;20434;-77
2023/01/06 02:07:40;;;;;;;8.13;6.38;;;;;;;11.20;50.91;99726.28;5032250;28;20014;-77
2023/01/06 02:10:16;;;;;;;11.32;5.82;;;;;;;10.28;50.42;99573.06;5032145;28;20112;-77
2023/01/06 02:12:42;;;;;;;9.50;6.93;;;;;;;11.25;51.40;99726.56;5031970;28;20493;-78
2023/01/06 02:15:25;;;;;;;8.15;5.47;;;;;;;11.11;49.92;99696.44;5032253;28;20087;-77
2023/01/06 02:18:02;;;;;;;7.68;5.47;;;;;;;11.32;50.50;99720.41;5030700;28;20039;-77
2023/01/06 02:20:51;;;;;;;8.73;6.00;;;;;;;11.34;50.31;99707.81;5031846;28;20029;-77
2023/01/06 02:23:16;;;;;;;8.43;5.35;;;;;;;11.34;51.10;99721.03;5031760;28;20046;-78
2023/01/06 02:26:19;;;;;;;8.77;5.75;;;;;;;11.38;48.51;99700.34;5032022;28;20139;-77
2023/01/06 02:29:08;;;;;;;10.88;7.10;;;;;;;11.40;49.35;99722.16;5031826;28;20224;-77
2023/01/06 02:32:13;;;;;;;9.27;5.82;;;;;;;11.44;48.90;99704.94;5031795;28;20025;-77
2023/01/06 02:35:03;;;;;;;9.30;5.28;;;;;;;11.46;49.26;99710.84;5031646;28;20109;-77
2023/01/06 02:37:50;;;;;;;8.20;5.45;;;;;;;11.51;49.72;99718.25;5031585;28;20029;-77
2023/01/06 02:40:27;;;;;;;11.77;5.97;;;;;;;11.50;50.12;99741.22;5031626;28;20063;-77
2023/01/06 02:43:14;;;;;;;9.48;6.05;;;;;;;11.48;49.90;99719.44;5030376;28;20033;-76
2023/01/06 02:45:42;;;;;;;8.40;6.00;;;;;;;11.53;50.04;99714.44;5031919;28;20037;-77
2023/01/06 02:48:31;;;;;;;7.13;5.80;;;;;;;11.53;49.45;99718.88;5031575;28;20017;-77
2023/01/06 02:51:10;;;;;;;8.30;6.07;;;;;;;10.64;49.54;99577.78;5031320;28;20029;-76
2023/01/06 02:54:08;;;;;;;7.78;5.97;;;;;;;11.35;49.63;99693.59;5031379;28;20032;-77
2023/01/06 02:56:38;;;;;;;9.10;6.13;;;;;;;11.37;50.27;99702.19;5031126;28;20068;-78
2023/01/06 02:59:08;;;;;;;9.52;5.32;;;;;;;11.39;50.12;99684.31;5031394;28;20030;-78
2023/01/06 03:01:40;;;;;;;5.63;4.78;;;;;;;10.48;49.97;99531.22;5029988;28;20033;-77
2023/01/06 03:04:10;;;;;;;6.53;5.10;;;;;;;10.69;50.03;99586.81;5031431;28;20025;-77
2023/01/06 03:06:43;;;;;;;7.82;5.75;;;;;;;11.61;50.19;99714.34;5031248;28;20025;-78
2023/01/06 03:09:13;;;;;;;6.68;5.80;;;;;;;10.78;50.28;99558.53;5030974;28;20036;-77
2023/01/06 03:11:40;;;;;;;8.23;6.15;;;;;;;11.54;50.25;99665.00;5031058;28;20036;-78
2023/01/06 03:14:25;;;;;;;8.60;5.22;;;;;;;11.58;49.90;99688.25;5031316;28;20108;-77
2023/01/06 03:16:50;;;;;;;8.43;6.22;;;;;;;11.59;50.04;99678.50;5031209;28;20052;-78
2023/01/06 03:19:16;;;;;;;9.13;6.20;;;;;;;11.56;50.48;99665.66;5031262;28;20483;-78
2023/01/06 03:21:45;;;;;;;7.47;5.43;;;;;;;11.59;50.85;99681.16;5031122;28;20021;-78
2023/01/06 03:24:11;;;;;;;7.88;5.47;;;;;;;11.26;50.79;99628.59;5030990;28;20505;-78
2023/01/06 03:26:37;;;;;;;7.25;5.97;;;;;;;11.19;50.98;99608.38;5031103;28;20022;-78
2023/01/06 03:29:08;;;;;;;7.45;6.25;;;;;;;10.77;51.03;99555.06;5031115;28;20029;-78
2023/01/06 03:31:46;;;;;;;8.50;5.63;;;;;;;11.52;50.54;99677.59;5031147;28;20030;-77
2023/01/06 03:34:29;;;;;;;6.68;4.72;;;;;;;11.48;50.37;99673.66;5031082;28;20079;-78
2023/01/06 03:37:10;;;;;;;7.60;5.40;;;;;;;10.68;51.25;99558.78;5030967;28;20491;-77
2023/01/06 03:40:05;;;;;;;9.43;6.60;;;;;;;11.09;50.97;99624.44;5030861;28;20030;-77
2023/01/06 03:45:38;;;;;;;5.68;4.40;;;;;;;11.37;51.62;99682.84;5030838;28;20036;-77
2023/01/06 03:48:30;;;;;;;8.65;5.65;;;;;;;11.39;51.04;99689.59;5030927;28;20029;-78
2023/01/06 03:51:04;;;;;;;7.22;4.30;;;;;;;11.41;51.42;99698.19;5030891;28;20029;-77
2023/01/06 03:53:36;;;;;;;6.55;4.07;;;;;;;11.30;50.97;99674.00;5030713;28;20033;-78
2023/01/06 03:56:07;;;;;;;4.50;4.10;;;;;;;11.41;51.15;99690.25;5030825;28;20029;-78
2023/01/06 03:58:36;;;;;;;5.28;3.92;;;;;;;10.89;51.02;99610.91;5030890;28;20051;-78
2023/01/06 04:01:02;;;;;;;6.65;4.68;;;;;;;11.48;51.41;99710.69;5030961;28;20064;-78
2023/01/06 04:03:28;;;;;;;5.82;3.92;;;;;;;11.47;50.89;99707.22;5029680;28;20049;-78
2023/01/06 04:05:53;;;;;;;8.00;4.43;;;;;;;10.51;50.88;99552.00;5029619;28;20096;-78
2023/01/06 04:08:19;;;;;;;6.45;4.32;;;;;;;11.46;51.45;99711.69;5030985;28;20124;-78
2023/01/06 04:10:45;;;;;;;8.05;4.53;;;;;;;10.64;50.77;99588.34;5029657;28;20434;-78
2023/01/06 04:13:10;;;;;;;6.00;4.72;;;;;;;10.99;50.56;99643.19;5030505;28;20050;-78
2023/01/06 04:15:35;;;;;;;10.15;5.30;;;;;;;11.50;51.15;99729.81;5030685;28;20029;-77
2023/01/06 04:18:01;;;;;;;5.50;3.75;;;;;;;9.75;50.74;99455.19;5030679;28;20518;-78
2023/01/06 04:20:29;;;;;;;7.03;4.38;;;;;;;10.80;51.12;99636.56;5033125;28;20108;-78
2023/01/06 04:22:56;;;;;;;5.88;4.22;;;;;;;11.46;50.15;99734.66;5032993;28;20035;-77
2023/01/06 04:25:22;;;;;;;6.80;4.53;;;;;;;11.49;50.67;99739.59;5034220;28;20047;-78
2023/01/06 04:27:48;;;;;;;5.93;4.57;;;;;;;11.19;50.66;99695.56;5034107;28;20037;-76
2023/01/06 04:30:14;;;;;;;6.68;4.85;;;;;;;10.89;50.44;99657.66;5032850;28;20406;-78
2023/01/06 04:32:39;;;;;;;7.38;5.53;;;;;;;11.43;50.81;99735.84;5034085;28;20103;-77
2023/01/06 04:35:06;;;;;;;5.45;4.75;;;;;;;11.40;50.08;99738.84;5032544;28;20021;-78
2023/01/06 04:37:33;;;;;;;4.82;4.00;;;;;;;11.38;50.65;99732.06;5033912;28;20032;-78
2023/01/06 04:39:58;;;;;;;6.70;4.70;;;;;;;11.34;50.31;99728.97;5034024;28;20048;-78
2023/01/06 04:42:23;;;;;;;6.28;4.70;;;;;;;11.40;50.34;99736.19;5033949;28;20490;-78
2023/01/06 04:44:49;;;;;;;5.13;4.28;;;;;;;11.45;50.70;99748.88;5033971;28;20036;-77
2023/01/06 04:47:14;;;;;;;6.88;5.05;;;;;;;11.41;50.23;99747.59;5033975;28;20026;-78
2023/01/06 04:49:40;;;;;;;6.93;5.28;;;;;;;10.61;49.91;99634.41;5032716;28;20033;-78
2023/01/06 04:52:07;;;;;;;5.32;4.82;;;;;;;11.38;50.96;99769.09;5033685;28;20025;-78
2023/01/06 04:54:33;;;;;;;5.45;4.95;;;;;;;10.56;50.65;99631.47;5033669;28;20445;-78
2023/01/06 04:56:58;;;;;;;6.35;4.25;;;;;;;11.04;50.76;99733.31;5032215;28;20033;-77
2023/01/06 04:59:24;;;;;;;6.55;5.03;;;;;;;11.34;51.03;99792.41;5033493;28;20029;-78
2023/01/06 05:01:49;;;;;;;6.38;4.85;;;;;;;11.35;51.04;99794.06;5033498;28;20029;-77
2023/01/06 05:04:14;;;;;;;7.80;5.03;;;;;;;10.48;51.07;99655.28;5032206;28;20029;-77
2023/01/06 05:06:40;;;;;;;7.72;5.63;;;;;;;11.31;51.33;99810.44;5033573;28;20033;-77
2023/01/06 05:09:06;;;;;;;9.18;6.82;;;;;;;11.25;51.03;99813.78;5033364;28;20104;-78
2023/01/06 05:11:31;;;;;;;7.32;5.75;;;;;;;11.24;51.40;99806.88;5033153;28;20048;-78
2023/01/06 05:13:57;;;;;;;6.35;5.70;;;;;;;10.83;51.86;99749.78;5033190;28;20096;-78
2023/01/06 05:16:26;;;;;;;9.60;7.03;;;;;;;11.14;51.44;99799.13;5031794;28;20026;-78
2023/01/06 05:18:52;;;;;;;7.10;5.70;;;;;;;11.21;51.44;99831.81;5032842;28;20032;-78
2023/01/06 05:21:17;;;;;;;12.20;6.57;;;;;;;11.17;51.89;99819.13;5032885;28;20033;-78
2023/01/06 05:23:43;;;;;;;6.05;5.30;;;;;;;10.28;51.96;99693.66;5031792;28;20022;-78
2023/01/06 05:26:14;;;;;;;17.27;9.57;;;;;;;11.16;52.02;99841.28;5033052;28;20025;-78
2023/01/06 05:28:39;;;;;;;9.98;6.10;;;;;;;11.16;51.91;99847.38;5032822;28;20022;-78
2023/01/06 05:31:04;;;;;;;6.93;5.65;;;;;;;11.13;52.06;99842.41;5031723;28;20104;-77
2023/01/06 05:33:31;;;;;;;7.15;5.65;;;;;;;11.14;51.51;99846.69;5033224;28;20052;-77
2023/01/06 05:36:01;;;;;;;10.35;5.90;;;;;;;10.64;52.32;99773.19;5032803;28;20025;-78
2023/01/06 05:38:26;;;;;;;9.80;6.05;;;;;;;10.83;51.81;99797.34;5032503;28;20034;-78
2023/01/06 05:40:53;;;;;;;8.35;5.78;;;;;;;10.77;52.30;99810.41;5032773;28;20032;-77
2023/01/06 05:43:20;;;;;;;6.90;5.63;;;;;;;11.07;52.22;99845.75;5032732;28;20101;-78
2023/01/06 05:45:45;;;;;;;14.52;7.47;;;;;;;11.04;52.48;99838.19;5032911;28;20025;-77
2023/01/06 05:48:11;;;;;;;7.38;5.80;;;;;;;10.79;51.78;99806.59;5031327;28;20538;-77
2023/01/06 05:50:36;;;;;;;10.73;5.97;;;;;;;10.61;52.41;99782.28;5032522;28;20100;-77
2023/01/06 05:53:01;;;;;;;12.15;5.82;;;;;;;11.00;52.67;99858.00;5032262;28;20178;-78
2023/01/06 05:55:27;;;;;;;8.40;5.63;;;;;;;9.99;52.68;99684.50;5032268;28;20084;-78
2023/01/06 05:57:52;;;;;;;8.13;4.72;;;;;;;10.94;52.84;99856.88;5032290;28;20406;-77
2023/01/06 06:00:18;;;;;;;8.77;5.22;;;;;;;10.18;52.34;99736.03;5032300;28;20541;-78
2023/01/06 06:02:43;;;;;;;7.28;5.13;;;;;;;9.99;52.61;99731.97;5032995;28;20021;-77
2023/01/06 06:05:09;;;;;;;11.23;5.50;;;;;;;10.81;52.56;99862.72;5051879;28;20029;-77
2023/01/06 06:07:34;;;;;;;8.45;5.03;;;;;;;10.94;52.72;99883.31;5051911;28;20017;-77
2023/01/06 06:10:00;;;;;;;7.47;5.10;;;;;;;10.40;52.63;99796.06;5052068;28;20409;-78
2023/01/06 06:12:25;;;;;;;7.60;3.85;;;;;;;10.95;52.07;99884.94;5051876;28;20131;-78
2023/01/06 06:14:50;;;;;;;6.78;4.30;;;;;;;10.97;52.54;99882.97;5051882;28;20036;-78
2023/01/06 06:17:16;;;;;;;8.65;3.80;;;;;;;10.76;52.11;99840.47;5051906;28;20104;-77
2023/01/06 06:19:41;;;;;;;9.55;4.10;;;;;;;10.77;52.23;99850.84;5051483;28;20101;-78
2023/01/06 06:22:07;;;;;;;7.85;4.10;;;;;;;11.01;51.93;99894.00;5050910;28;20114;-77
2023/01/06 06:24:32;;;;;;;10.85;3.78;;;;;;;10.18;51.89;99757.97;5051253;28;20021;-77
2023/01/06 06:26:57;;;;;;;5.93;4.07;;;;;;;11.04;51.13;99891.03;5044953;28;20055;-77
2023/01/06 06:29:23;;;;;;;5.30;3.08;;;;;;;11.05;51.65;99882.09;5031596;28;20025;-78
2023/01/06 06:31:48;;;;;;;5.60;3.72;;;;;;;10.24;51.51;99763.59;5044465;28;20497;-78
2023/01/06 06:34:14;;;;;;;8.73;4.05;;;;;;;10.97;51.26;99864.47;5066870;28;20016;-78
2023/01/06 06:36:39;;;;;;;7.65;5.40;;;;;;;10.86;51.78;99854.28;5052867;28;20422;-77
2023/01/06 06:39:04;;;;;;;6.68;3.92;;;;;;;10.90;51.89;99862.69;5051165;28;20105;-78
2023/01/06 06:41:30;;;;;;;6.95;3.58;;;;;;;11.01;51.69;99892.19;5050781;28;20025;-78
2023/01/06 06:43:55;;;;;;;4.53;3.90;;;;;;;10.96;51.56;99877.84;5049607;28;20104;-78
2023/01/06 06:46:21;;;;;;;7.50;4.53;;;;;;;10.86;51.91;99872.78;5051254;28;20116;-78
2023/01/06 06:48:48;;;;;;;6.72;3.15;;;;;;;10.78;51.35;99870.16;5049757;28;20021;-77
2023/01/06 06:51:16;;;;;;;7.60;3.30;;;;;;;10.50;51.36;99844.19;5049920;28;20409;-77
2023/01/06 06:53:42;;;;;;;6.20;4.10;;;;;;;11.01;51.23;99915.16;5051220;28;20029;-77
2023/01/06 06:56:09;;;;;;;5.90;4.38;;;;;;;10.94;52.24;99907.09;5051321;28;20032;-77
2023/01/06 06:58:36;;;;;;;9.00;4.32;;;;;;;10.35;51.50;99821.28;5047004;28;20044;-77
2023/01/06 07:01:03;;;;;;;9.00;3.75;;;;;;;10.57;51.80;99831.13;5039873;28;20062;-78
2023/01/06 07:03:29;;;;;;;8.13;3.63;;;;;;;10.97;51.35;99898.00;5037698;28;20083;-77
2023/01/06 07:05:55;;;;;;;10.18;5.03;;;;;;;11.10;51.45;99904.38;5031071;28;20410;-77
2023/01/06 07:08:20;;;;;;;8.63;4.60;;;;;;;11.08;51.22;99914.28;5042416;28;20029;-77
2023/01/06 07:10:46;;;;;;;10.57;4.88;;;;;;;11.10;50.95;99911.47;5039448;28;20020;-77
2023/01/06 07:13:11;;;;;;;10.52;4.82;;;;;;;11.17;50.87;99909.81;5034012;28;20049;-78
2023/01/06 07:15:36;;;;;;;9.10;4.45;;;;;;;11.24;50.51;99928.44;5050985;28;20020;-77
2023/01/06 07:18:04;;;;;;;7.53;3.97;;;;;;;11.29;50.51;99926.09;5046095;28;20060;-76
2023/01/06 07:20:31;;;;;;;10.50;3.45;;;;;;;11.18;50.11;99923.84;5044435;28;20025;-77
2023/01/06 07:22:56;;;;;;;6.85;3.58;;;;;;;10.72;49.30;99824.13;5045880;28;20104;-78
2023/01/06 07:25:21;;;;;;;8.90;4.47;;;;;;;11.15;48.80;99888.03;5049915;28;20095;-78
2023/01/06 07:27:52;;;;;;;13.23;3.20;;;;;;;11.44;47.86;99922.56;5050730;28;20029;-78
2023/01/06 07:30:18;;;;;;;10.15;3.58;;;;;;;11.58;48.56;99922.81;5049170;28;20083;-78
2023/01/06 07:32:43;;;;;;;7.30;2.80;;;;;;;11.62;48.44;99913.50;5042294;28;20105;-78
2023/01/06 07:35:09;;;;;;;6.60;3.17;;;;;;;11.59;48.22;99900.63;5037554;28;20064;-77
2023/01/06 07:37:34;;;;;;;9.55;2.85;;;;;;;11.18;47.90;99832.19;5036631;28;20034;-77
2023/01/06 07:39:59;;;;;;;6.38;2.83;;;;;;;11.73;46.83;99958.91;5044429;28;20093;-78
2023/01/06 07:42:25;;;;;;;4.63;2.78;;;;;;;11.77;46.83;99931.13;5032348;28;20444;-78
2023/01/06 07:44:50;;;;;;;7.90;2.53;;;;;;;11.71;46.48;99957.44;5050256;28;20029;-78
2023/01/06 07:47:16;;;;;;;8.40;3.00;;;;;;;11.61;46.79;99906.59;5051115;28;20018;-78
2023/01/06 07:49:41;;;;;;;6.32;3.03;;;;;;;11.95;46.41;99951.22;5050594;28;20553;-77
2023/01/06 07:52:06;;;;;;;5.88;3.20;;;;;;;11.83;46.25;99940.19;5050401;28;20047;-77
2023/01/06 07:54:32;;;;;;;6.55;2.83;;;;;;;11.82;46.64;99927.13;5051308;28;20016;-78
2023/01/06 07:56:57;;;;;;;3.88;2.60;;;;;;;11.19;46.41;99851.50;5054403;28;20490;-77
2023/01/06 07:59:23;;;;;;;4.43;2.53;;;;;;;11.51;46.04;99876.91;5054124;28;20056;-78
2023/01/06 08:01:48;;;;;;;6.05;2.83;;;;;;;11.87;45.98;99961.81;5053342;28;20017;-78
2023/01/06 08:04:13;;;;;;;4.45;2.60;;;;;;;12.07;45.72;99994.78;5054718;28;20025;-77
2023/01/06 08:06:39;;;;;;;5.72;2.75;;;;;;;12.12;45.83;99995.06;5050033;28;20930;-77
2023/01/06 08:09:05;;;;;;;5.72;2.40;;;;;;;11.49;45.84;99882.38;5039707;28;20037;-77
2023/01/06 08:11:30;;;;;;;4.78;2.60;;;;;;;12.20;45.84;99988.88;5033773;28;20060;-78
2023/01/06 08:13:56;;;;;;;7.70;2.70;;;;;;;12.13;45.56;99970.25;5052866;28;20476;-78
2023/01/06 08:16:21;;;;;;;4.45;2.72;;;;;;;11.59;45.30;99892.72;5052386;28;20024;-78
2023/01/06 08:18:47;;;;;;;6.75;2.58;;;;;;;12.29;45.48;99998.41;5053885;28;20391;-77
2023/01/06 08:21:12;;;;;;;10.63;3.50;;;;;;;10.18;45.03;99672.72;5054054;28;20021;-77
2023/01/06 08:23:38;;;;;;;7.57;2.63;;;;;;;12.35;45.35;100045.38;5053868;28;20025;-77
2023/01/06 08:26:12;;;;;;;6.70;3.00;;;;;;;12.36;44.95;100031.94;5053521;28;20037;-78
2023/01/06 08:28:38;;;;;;;4.82;2.40;;;;;;;12.23;44.75;100002.59;5053907;28;20033;-78
2023/01/06 08:31:08;;;;;;;8.48;2.50;;;;;;;11.67;44.59;99911.16;5053968;28;20028;-77
2023/01/06 08:33:33;;;;;;;6.25;3.03;;;;;;;12.44;44.77;100014.34;5053776;28;20032;-77
2023/01/06 08:36:03;;;;;;;4.78;3.33;;;;;;;12.47;44.57;100020.09;5053941;28;20029;-77
2023/01/06 08:38:30;;;;;;;6.13;2.55;;;;;;;11.99;44.35;99933.97;5052601;28;20108;-77
2023/01/06 08:40:57;;;;;;;8.05;2.40;;;;;;;12.23;43.99;100005.25;5053239;28;20025;-77
2023/01/06 08:43:23;;;;;;;4.47;2.45;;;;;;;12.56;44.23;100034.94;5051975;28;20028;-77
2023/01/06 08:45:49;;;;;;;7.00;2.45;;;;;;;12.58;43.71;100051.47;5053098;28;20022;-78
2023/01/06 08:48:14;;;;;;;6.25;2.85;;;;;;;12.65;43.60;100036.53;5051838;28;20547;-78
2023/01/06 08:50:41;;;;;;;6.80;2.60;;;;;;;11.56;43.43;99853.41;5042924;28;20032;-77
2023/01/06 08:53:08;;;;;;;4.80;2.53;;;;;;;12.67;43.17;100036.34;5031486;28;20450;-77
2023/01/06 08:55:37;;;;;;;2.72;1.98;;;;;;;12.66;42.77;100018.81;5039717;28;20017;-77
2023/01/06 08:58:03;;;;;;;4.10;2.53;;;;;;;11.93;42.71;99902.94;5035878;28;20018;-78
2023/01/06 09:00:28;;;;;;;4.30;2.95;;;;;;;12.24;42.90;99953.13;5033185;28;20050;-78
2023/01/06 09:02:54;;;;;;;7.32;2.97;;;;;;;12.79;42.65;100026.97;5031991;28;20486;-78
2023/01/06 09:05:19;;;;;;;3.95;2.55;;;;;;;12.04;42.35;99876.03;5041525;28;20021;-78
2023/01/06 09:07:44;;;;;;;5.90;4.05;;;;;;;12.17;42.70;99897.41;5052018;28;20530;-77
2023/01/06 09:10:10;;;;;;;7.90;2.78;;;;;;;12.51;42.06;99949.06;5052252;28;20020;-77
2023/01/06 09:12:36;;;;;;;5.50;3.30;;;;;;;12.57;42.02;99945.69;5051733;28;20445;-77
2023/01/06 09:15:03;;;;;;;5.25;2.78;;;;;;;12.82;41.99;99984.22;5053580;28;20025;-77
2023/01/06 09:17:29;;;;;;;6.13;3.10;;;;;;;12.96;41.24;100028.44;5053096;28;20025;-78
2023/01/06 09:19:54;;;;;;;5.10;2.30;;;;;;;12.12;41.47;99867.19;5052932;28;20024;-77
2023/01/06 09:22:20;;;;;;;5.22;1.92;;;;;;;13.01;40.91;100015.47;5052635;28;20040;-77
2023/01/06 09:24:45;;;;;;;5.63;2.22;;;;;;;12.26;41.16;99898.16;5052037;28;20059;-77
2023/01/06 09:27:10;;;;;;;3.92;2.05;;;;;;;13.05;41.26;100030.00;5051048;28;20017;-77
2023/01/06 09:29:36;;;;;;;6.28;3.83;;;;;;;12.29;40.81;99914.50;5051154;28;20044;-78
2023/01/06 09:32:02;;;;;;;6.38;2.55;;;;;;;12.93;41.35;100004.13;5052593;28;20143;-77
2023/01/06 09:34:27;;;;;;;8.18;2.10;;;;;;;12.96;40.37;100012.53;5053060;28;20409;-78
2023/01/06 09:36:53;;;;;;;3.35;1.88;;;;;;;12.64;40.49;99922.81;5053012;28;20031;-77
2023/01/06 09:39:18;;;;;;;3.15;2.33;;;;;;;12.22;40.85;99857.16;5051104;28;20482;-77
2023/01/06 09:41:50;;;;;;;4.05;2.25;;;;;;;13.26;41.02;100034.63;5052893;28;20096;-78
2023/01/06 09:44:29;;;;;;;2.97;2.30;;;;;;;13.17;40.70;99993.28;5052076;28;20025;-78
2023/01/06 09:46:57;;;;;;;3.88;1.83;;;;;;;12.43;40.08;99854.63;5051437;28;20025;-77
2023/01/06 09:49:43;;;;;;;6.68;2.10;;;;;;;13.35;39.69;100016.78;5052026;28;20021;-78
2023/01/06 09:52:50;;;;;;;3.92;2.10;;;;;;;13.43;39.51;99986.72;5051930;28;20027;-78
2023/01/06 09:55:36;;;;;;;6.90;2.08;;;;;;;13.51;39.84;100002.53;5049402;28;20048;-77
2023/01/06 09:58:12;;;;;;;5.63;1.95;;;;;;;13.27;39.61;99953.22;5051905;28;20060;-77
2023/01/06 10:00:40;;;;;;;3.58;1.67;;;;;;;13.59;38.81;99992.63;5050890;28;20028;-76
2023/01/06 10:03:14;;;;;;;3.38;1.27;;;;;;;13.67;39.28;99997.81;5051029;28;20028;-77
2023/01/06 10:06:06;;;;;;;3.60;2.00;;;;;;;13.75;38.73;100004.03;5051709;28;20036;-78
2023/01/06 10:08:52;;;;;;;5.00;1.63;;;;;;;13.79;38.87;99992.84;5048631;28;20044;-78
2023/01/06 10:11:47;;;;;;;4.32;1.95;;;;;;;13.84;38.97;100002.91;5039960;28;20098;-77
2023/01/06 10:14:20;;;;;;;4.18;1.85;;;;;;;13.88;38.58;100010.28;5049430;28;20094;-78
2023/01/06 10:17:10;;;;;;;2.33;1.65;;;;;;;13.93;38.58;100005.25;5050363;28;20051;-77
2023/01/06 10:20:02;;;;;;;5.13;1.85;;;;;;;13.98;38.39;99984.25;5038310;28;20421;-75
2023/01/06 10:23:35;;;;;;;5.15;1.80;;;;;;;14.03;38.70;99977.56;5049497;28;20485;-77
2023/01/06 10:26:26;;;;;;;5.13;1.73;;;;;;;13.35;38.43;99869.06;5009388;28;20037;-78
2023/01/06 10:28:55;;;;;;;3.15;2.10;;;;;;;14.03;38.65;99962.44;5009323;28;20147;-77
2023/01/06 10:31:24;;;;;;;3.70;2.28;;;;;;;13.96;38.35;99927.88;5018524;28;20041;-77
2023/01/06 10:33:55;;;;;;;2.83;1.73;;;;;;;14.11;38.30;99956.19;5051468;28;20092;-78
2023/01/06 10:36:29;;;;;;;5.68;2.10;;;;;;;14.16;37.97;99962.59;5048169;28;20464;-77
2023/01/06 10:38:55;;;;;;;4.57;2.15;;;;;;;13.26;38.00;99808.41;5044640;28;20021;-77
2023/01/06 10:41:40;;;;;;;3.05;1.92;;;;;;;14.23;37.52;99992.69;5050803;28;20025;-77
2023/01/06 10:44:08;;;;;;;3.78;1.50;;;;;;;14.16;37.64;99945.84;5050410;28;20021;-77
2023/01/06 10:46:35;;;;;;;2.67;1.80;;;;;;;14.28;37.71;99954.94;5051105;28;20024;-78
2023/01/06 10:49:02;;;;;;;4.45;1.98;;;;;;;13.66;37.37;99874.13;5051419;28;20033;-77
2023/01/06 10:51:44;;;;;;;4.30;2.20;;;;;;;14.29;37.57;99965.38;5049847;28;20033;-77
2023/01/06 10:54:14;;;;;;;4.40;2.20;;;;;;;14.29;37.47;99948.59;5050686;28;20099;-77
2023/01/06 10:56:44;;;;;;;2.50;1.98;;;;;;;14.35;37.54;99958.47;5050843;28;20088;-79
2023/01/06 10:59:10;;;;;;;3.40;1.85;;;;;;;13.96;37.38;99898.69;5050342;28;20025;-77
2023/01/06 11:01:48;;;;;;;4.20;1.75;;;;;;;14.18;37.29;99917.25;5050657;28;20028;-77
2023/01/06 11:04:14;;;;;;;3.80;2.00;;;;;;;14.24;36.71;99943.06;5050888;28;20028;-76
2023/01/06 11:07:02;;;;;;;2.85;1.45;;;;;;;14.33;37.04;99941.91;5049683;28;20413;-77
2023/01/06 11:09:41;;;;;;;4.03;2.28;;;;;;;14.31;37.30;99946.59;5049397;28;20471;-77
2023/01/06 11:12:19;;;;;;;2.40;1.45;;;;;;;14.19;36.14;99918.91;5050150;28;20598;-77
2023/01/06 11:15:00;;;;;;;4.60;1.92;;;;;;;14.29;36.01;99930.03;5050595;28;20044;-78
2023/01/06 11:17:27;;;;;;;5.80;2.38;;;;;;;14.31;36.74;99949.25;5050388;28;20124;-77
2023/01/06 11:20:19;;;;;;;6.03;2.17;;;;;;;14.28;36.94;99952.28;5049254;28;20025;-77
2023/01/06 11:22:44;;;;;;;2.28;1.45;;;;;;;14.23;36.90;99922.81;5050265;28;20056;-78
2023/01/06 11:25:19;;;;;;;2.70;2.50;;;;;;;14.34;36.50;99937.41;5049451;28;20531;-78
2023/01/06 11:28:08;;;;;;;4.78;2.72;;;;;;;14.36;36.39;99932.72;5049465;28;20528;-77
2023/01/06 11:30:39;;;;;;;3.45;2.10;;;;;;;14.38;36.83;99936.00;5054777;28;20024;-77
2023/01/06 11:33:12;;;;;;;3.53;2.20;;;;;;;14.24;36.20;99904.03;5054550;28;20528;-77
2023/01/06 11:35:38;;;;;;;3.03;1.67;;;;;;;14.38;35.96;99942.16;5054117;28;20029;-77
2023/01/06 11:38:03;;;;;;;2.63;2.03;;;;;;;14.39;35.69;99921.72;5039749;28;20032;-77
2023/01/06 11:40:32;;;;;;;3.53;2.08;;;;;;;14.33;36.21;99907.38;5054630;28;20025;-77
2023/01/06 11:43:09;;;;;;;5.15;2.70;;;;;;;14.31;35.40;99912.06;5048830;28;20021;-77
2023/01/06 11:45:42;;;;;;;5.38;2.15;;;;;;;14.09;35.22;99874.06;5036718;28;20025;-77
2023/01/06 11:48:12;;;;;;;7.22;4.25;;;;;;;14.10;36.01;99866.91;5054326;28;20017;-77